Time;durP1;ratioP1;P1;durP2;ratioP2;P2;SDS_P1;SDS_P2;PMS_P1;PMS_P2;Temp;Humidity;BMP_temperature;BMP_pressure;BME280_temperature;BME280_humidity;BME280_pressure;Samples;Min_cycle;Max_cycle;Signal;HPM_P1;HPM_P2
2023/06/11 00:01:58;;;;;;;8.70;7.70;;;16.30;99.90;;;;;;4988743;28;20204;-76
2023/06/11 00:04:25;;;;;;;8.52;7.28;;;16.30;99.90;;;;;;4987772;28;20188;-76
2023/06/11 00:06:56;;;;;;;8.25;7.50;;;16.40;99.90;;;;;;4988531;28;20184;-75
2023/06/11 00:09:25;;;;;;;8.90;8.05;;;16.30;99.90;;;;;;4987271;28;20225;-75
2023/06/11 00:11:53;;;;;;;9.18;7.57;;;16.40;99.90;;;;;;4988585;28;20741;-75
2023/06/11 00:14:23;;;;;;;9.93;7.70;;;16.60;99.90;;;;;;4987759;28;20207;-75
2023/06/11 00:16:49;;;;;;;7.97;7.28;;;16.30;99.90;;;;;;4988330;28;20655;-75
2023/06/11 00:19:17;;;;;;;8.43;7.53;;;16.20;99.90;;;;;;4987399;28;20188;-75
2023/06/11 00:21:43;;;;;;;8.85;7.57;;;16.30;99.90;;;;;;4988232;28;20250;-75
2023/06/11 00:24:13;;;;;;;8.68;6.82;;;16.30;99.90;;;;;;4987878;28;20271;-76
2023/06/11 00:26:40;;;;;;;9.32;7.75;;;16.60;99.90;;;;;;4987984;28;20207;-75
2023/06/11 00:29:06;;;;;;;8.40;7.47;;;16.50;99.90;;;;;;4987540;28;20210;-76
2023/06/11 00:31:32;;;;;;;9.43;7.20;;;16.70;99.90;;;;;;4987641;28;20637;-76
2023/06/11 00:33:58;;;;;;;9.43;7.05;;;16.10;99.90;;;;;;4987471;28;20208;-75
2023/06/11 00:36:26;;;;;;;8.70;7.35;;;16.10;99.90;;;;;;4987755;28;20187;-75
2023/06/11 00:38:53;;;;;;;7.93;7.25;;;16.10;99.90;;;;;;4987111;28;20262;-76
2023/06/11 00:41:20;;;;;;;8.18;7.32;;;16.20;99.90;;;;;;4987652;28;20497;-75
2023/06/11 00:43:48;;;;;;;8.55;7.70;;;16.40;99.90;;;;;;4986930;28;20223;-75
2023/06/11 00:46:16;;;;;;;7.55;6.82;;;16.70;99.90;;;;;;4987384;28;20203;-75
2023/06/11 00:48:42;;;;;;;7.55;6.88;;;16.10;99.90;;;;;;4987390;28;20722;-76
2023/06/11 00:51:10;;;;;;;7.80;7.05;;;16.10;99.90;;;;;;4986998;28;20191;-76
2023/06/11 00:53:36;;;;;;;7.15;6.53;;;16.40;99.90;;;;;;4986924;28;20581;-75
2023/06/11 00:56:02;;;;;;;8.10;7.30;;;16.10;99.90;;;;;;4987329;28;20184;-77
2023/06/11 00:58:29;;;;;;;8.10;7.30;;;16.10;99.90;;;;;;4986855;28;20207;-76
2023/06/11 01:00:58;;;;;;;8.25;7.18;;;16.40;99.90;;;;;;4986653;28;20207;-76
2023/06/11 01:03:26;;;;;;;7.43;6.78;;;16.10;99.90;;;;;;4986827;28;20555;-76
2023/06/11 01:06:11;;;;;;;9.63;7.25;;;16.10;99.90;;;;;;4987278;28;20658;-76
2023/06/11 01:08:41;;;;;;;8.00;7.03;;;16.10;99.90;;;;;;4986612;28;20208;-77
2023/06/11 01:11:17;;;;;;;7.93;7.10;;;16.40;99.90;;;;;;4986500;28;20188;-75
2023/06/11 01:13:43;;;;;;;8.38;7.35;;;15.90;99.90;;;;;;4986419;28;20691;-77
2023/06/11 01:16:44;;;;;;;8.00;7.20;;;16.20;99.90;;;;;;4985254;28;20187;-76
2023/06/11 01:20:06;;;;;;;8.05;7.20;;;15.90;99.90;;;;;;4984873;28;20175;-76
2023/06/11 01:22:38;;;;;;;8.07;7.30;;;15.90;99.90;;;;;;4964510;28;20811;-76
2023/06/11 01:25:29;;;;;;;9.07;7.20;;;15.90;99.90;;;;;;4983099;28;20199;-76
2023/06/11 01:28:10;;;;;;;7.90;7.20;;;15.90;99.90;;;;;;4986160;28;20199;-75
2023/06/11 01:30:39;;;;;;;8.15;7.35;;;15.90;99.90;;;;;;4984403;28;20184;-76
2023/06/11 01:33:05;;;;;;;7.55;6.93;;;15.90;99.90;;;;;;4986239;28;20204;-76
2023/06/11 01:35:33;;;;;;;8.05;7.25;;;15.80;99.90;;;;;;4986452;28;20258;-75
2023/06/11 01:37:59;;;;;;;8.90;8.00;;;15.80;99.90;;;;;;4985975;28;20272;-75
2023/06/11 01:40:26;;;;;;;8.05;7.35;;;16.20;99.90;;;;;;4985943;28;20199;-75
2023/06/11 01:42:53;;;;;;;9.27;8.13;;;15.60;99.90;;;;;;4987150;28;20216;-76
2023/06/11 01:45:19;;;;;;;10.38;7.20;;;16.60;99.90;;;;;;4986126;28;20184;-76
2023/06/11 01:47:45;;;;;;;11.23;7.60;;;15.70;99.90;;;;;;4986160;28;20211;-77
2023/06/11 01:50:12;;;;;;;8.15;7.47;;;16.00;99.90;;;;;;4985730;28;20184;-76
2023/06/11 01:52:38;;;;;;;8.73;7.75;;;16.10;99.90;;;;;;4986050;28;20757;-76
2023/06/11 01:55:06;;;;;;;8.38;7.47;;;16.40;99.90;;;;;;4986468;28;20613;-76
2023/06/11 01:57:32;;;;;;;9.40;8.10;;;15.60;99.90;;;;;;4985730;28;20199;-76
2023/06/11 01:59:58;;;;;;;9.13;7.85;;;15.60;99.90;;;;;;4983577;28;20180;-76
2023/06/11 02:02:24;;;;;;;8.77;7.90;;;15.50;99.90;;;;;;4984577;28;20203;-77
2023/06/11 02:04:49;;;;;;;9.02;7.88;;;15.40;99.90;;;;;;4985551;28;20548;-76
2023/06/11 02:07:15;;;;;;;8.57;7.75;;;15.30;99.90;;;;;;4985891;28;20208;-77
2023/06/11 02:09:41;;;;;;;11.30;8.68;;;16.20;99.90;;;;;;4985233;28;20216;-77
2023/06/11 02:12:07;;;;;;;9.10;8.20;;;15.50;99.90;;;;;;4984517;28;20184;-76
2023/06/11 02:14:32;;;;;;;10.02;8.82;;;15.20;99.90;;;;;;4985447;28;20238;-75
2023/06/11 02:16:58;;;;;;;9.02;8.05;;;15.20;99.90;;;;;;4985713;28;20187;-76
2023/06/11 02:19:23;;;;;;;9.40;7.63;;;15.20;99.90;;;;;;4984693;28;20238;-76
2023/06/11 02:21:49;;;;;;;9.52;7.65;;;15.20;99.90;;;;;;4986192;28;20290;-76
2023/06/11 02:24:15;;;;;;;8.30;7.50;;;15.40;99.90;;;;;;4985569;28;20207;-76
2023/06/11 02:26:41;;;;;;;8.50;7.50;;;15.10;99.90;;;;;;4985219;28;20188;-77
2023/06/11 02:29:06;;;;;;;8.45;7.65;;;15.10;99.90;;;;;;4985442;28;20195;-76
2023/06/11 02:31:32;;;;;;;9.18;7.32;;;15.20;99.90;;;;;;4985010;28;20674;-76
2023/06/11 02:33:57;;;;;;;8.27;7.47;;;15.00;99.90;;;;;;4985113;28;20216;-75
2023/06/11 02:36:23;;;;;;;7.93;7.20;;;15.10;99.90;;;;;;4985481;28;20211;-75
2023/06/11 02:38:49;;;;;;;7.93;7.13;;;15.10;99.90;;;;;;4985422;28;20204;-75
2023/06/11 02:41:15;;;;;;;9.85;7.38;;;15.20;99.90;;;;;;4985011;28;20184;-75
2023/06/11 02:43:41;;;;;;;8.93;8.02;;;15.10;99.90;;;;;;4985424;28;20927;-75
2023/06/11 02:46:07;;;;;;;8.00;7.20;;;15.80;99.90;;;;;;4985635;28;20188;-75
2023/06/11 02:48:32;;;;;;;9.50;8.25;;;15.60;99.90;;;;;;4983873;28;20584;-77
2023/06/11 02:50:58;;;;;;;9.23;8.43;;;15.20;99.90;;;;;;4985021;28;20250;-76
2023/06/11 02:53:23;;;;;;;8.70;7.57;;;15.20;99.90;;;;;;4985103;28;20216;-76
2023/06/11 02:55:49;;;;;;;8.98;8.00;;;14.90;99.90;;;;;;4985720;28;20223;-77
2023/06/11 02:58:15;;;;;;;11.13;7.72;;;14.80;99.90;;;;;;4984963;28;20208;-76
2023/06/11 03:00:40;;;;;;;8.50;7.70;;;14.90;99.90;;;;;;4984981;28;20228;-76
2023/06/11 03:03:06;;;;;;;8.95;7.90;;;14.90;99.90;;;;;;4984667;28;20715;-77
2023/06/11 03:05:31;;;;;;;8.52;7.63;;;15.10;99.90;;;;;;4985651;28;20188;-76
2023/06/11 03:07:57;;;;;;;9.18;7.80;;;14.80;99.90;;;;;;4984742;28;20330;-76
2023/06/11 03:10:23;;;;;;;9.75;7.45;;;14.70;99.90;;;;;;4984826;28;20235;-77
2023/06/11 03:12:49;;;;;;;8.82;7.53;;;14.70;99.90;;;;;;4983760;28;20211;-76
2023/06/11 03:15:15;;;;;;;7.22;6.50;;;14.70;99.90;;;;;;4985456;28;20206;-76
2023/06/11 03:17:40;;;;;;;8.30;7.53;;;14.70;99.90;;;;;;4984788;28;20327;-75
2023/06/11 03:20:06;;;;;;;12.98;7.90;;;14.70;99.90;;;;;;4984675;28;20223;-76
2023/06/11 03:22:32;;;;;;;8.23;7.15;;;14.70;94.20;;;;;;4985072;28;20185;-75
2023/06/11 03:24:58;;;;;;;9.45;7.60;;;14.90;99.90;;;;;;4983718;28;20610;-76
2023/06/11 03:27:23;;;;;;;8.85;7.30;;;14.70;99.90;;;;;;4984934;28;20247;-76
2023/06/11 03:29:49;;;;;;;8.65;7.28;;;14.70;99.90;;;;;;4984217;28;20188;-76
2023/06/11 03:32:15;;;;;;;8.02;7.22;;;14.70;99.90;;;;;;4985177;28;20258;-76
2023/06/11 03:34:42;;;;;;;8.75;7.18;;;14.50;99.90;;;;;;4984873;28;20211;-76
2023/06/11 03:37:08;;;;;;;8.43;7.60;;;14.90;94.90;;;;;;4985111;28;20239;-76
2023/06/11 03:39:33;;;;;;;8.57;6.82;;;15.00;97.00;;;;;;4987741;28;20238;-76
2023/06/11 03:41:59;;;;;;;7.38;6.60;;;14.90;93.70;;;;;;4988640;28;20251;-76
2023/06/11 03:44:25;;;;;;;8.10;7.15;;;14.80;94.50;;;;;;4988297;28;20227;-76
2023/06/11 03:46:50;;;;;;;8.60;7.65;;;14.90;78.00;;;;;;4988369;28;20192;-76
2023/06/11 03:49:16;;;;;;;8.20;7.22;;;15.00;63.60;;;;;;4988313;28;20188;-76
2023/06/11 03:51:41;;;;;;;7.13;6.43;;;14.90;72.90;;;;;;4988293;28;20199;-76
2023/06/11 03:54:07;;;;;;;8.35;7.60;;;15.00;64.70;;;;;;4988143;28;20583;-76
2023/06/11 03:56:32;;;;;;;8.25;7.43;;;15.00;66.30;;;;;;4988280;28;20544;-76
2023/06/11 03:58:58;;;;;;;7.88;7.18;;;15.00;59.60;;;;;;4988087;28;20223;-75
2023/06/11 04:01:24;;;;;;;7.63;6.88;;;15.00;71.50;;;;;;4987549;28;20192;-77
2023/06/11 04:03:49;;;;;;;7.72;6.90;;;15.00;59.10;;;;;;4988263;28;20632;-76
2023/06/11 04:06:17;;;;;;;8.23;7.43;;;15.10;56.70;;;;;;4986832;28;20543;-76
2023/06/11 04:08:43;;;;;;;7.38;6.60;;;15.10;54.30;;;;;;4987553;28;20627;-76
2023/06/11 04:11:08;;;;;;;9.63;7.35;;;15.10;65.30;;;;;;4987894;28;20283;-77
2023/06/11 04:13:34;;;;;;;8.23;6.95;;;15.20;49.50;;;;;;4987322;28;20234;-76
2023/06/11 04:16:00;;;;;;;8.40;7.15;;;15.20;40.90;;;;;;4987884;28;20184;-77
2023/06/11 04:18:27;;;;;;;8.75;7.78;;;15.20;42.20;;;;;;4986074;28;20206;-76
2023/06/11 04:20:52;;;;;;;8.10;7.05;;;15.30;38.40;;;;;;4987530;28;20186;-76
2023/06/11 04:23:18;;;;;;;8.55;6.78;;;15.30;50.00;;;;;;4987438;28;20180;-76
2023/06/11 04:25:43;;;;;;;8.25;6.90;;;15.50;33.00;;;;;;4986553;28;20224;-76
2023/06/11 04:28:10;;;;;;;9.43;7.57;;;15.50;28.10;;;;;;4986213;28;20682;-76
2023/06/11 04:30:36;;;;;;;9.00;7.70;;;15.50;25.80;;;;;;4987020;28;20189;-76
2023/06/11 04:33:03;;;;;;;8.65;6.85;;;15.50;27.00;;;;;;4987431;28;20204;-77
2023/06/11 04:35:29;;;;;;;8.55;6.85;;;15.40;27.60;;;;;;4987288;28;20176;-76
2023/06/11 04:37:55;;;;;;;8.07;7.28;;;15.50;25.10;;;;;;4987363;28;20270;-75
2023/06/11 04:40:23;;;;;;;7.78;6.97;;;15.50;25.30;;;;;;4987111;28;20189;-75
2023/06/11 04:42:49;;;;;;;7.25;6.60;;;15.60;24.50;;;;;;4986226;28;20184;-76
2023/06/11 04:45:18;;;;;;;7.50;6.85;;;15.60;23.00;;;;;;4987453;28;20207;-76
2023/06/11 04:47:45;;;;;;;7.47;6.68;;;15.70;20.60;;;;;;4987268;28;20254;-76
2023/06/11 04:50:11;;;;;;;9.75;7.07;;;15.80;14.20;;;;;;4985876;28;20311;-76
2023/06/11 04:52:38;;;;;;;7.63;6.38;;;16.30;5.90;;;;;;4987272;28;20677;-76
2023/06/11 04:55:05;;;;;;;8.68;6.72;;;16.00;2.50;;;;;;4987326;28;20682;-76
2023/06/11 04:57:33;;;;;;;9.35;6.82;;;16.60;1.00;;;;;;4987103;28;20235;-76
2023/06/11 04:59:59;;;;;;;7.22;6.32;;;17.90;1.00;;;;;;4986578;28;20180;-76
2023/06/11 05:02:26;;;;;;;8.18;6.22;;;19.20;1.00;;;;;;4987067;28;20676;-76
2023/06/11 05:04:53;;;;;;;7.05;6.35;;;20.20;1.00;;;;;;4987292;28;20176;-76
2023/06/11 05:07:20;;;;;;;7.80;6.15;;;21.10;1.00;;;;;;4987177;28;20254;-77
2023/06/11 05:09:46;;;;;;;7.97;6.30;;;22.00;1.00;;;;;;4986802;28;20284;-75
2023/06/11 05:12:12;;;;;;;7.47;5.93;;;22.60;1.00;;;;;;4986960;28;20235;-75
2023/06/11 05:14:38;;;;;;;8.60;6.57;;;23.20;1.00;;;;;;4985958;28;20189;-76
2023/06/11 05:17:04;;;;;;;6.57;5.95;;;23.20;1.00;;;;;;4987466;28;20279;-75
2023/06/11 05:19:30;;;;;;;7.05;6.15;;;23.60;1.00;;;;;;4986889;28;20239;-76
2023/06/11 05:21:56;;;;;;;6.35;5.75;;;23.90;1.00;;;;;;4986747;28;20219;-75
2023/06/11 05:24:28;;;;;;;6.60;6.00;;;23.70;1.00;;;;;;4987022;28;20199;-74
2023/06/11 05:26:55;;;;;;;9.50;6.43;;;24.00;1.00;;;;;;4987266;28;20796;-76
2023/06/11 05:29:21;;;;;;;6.85;6.25;;;24.00;1.00;;;;;;4987331;28;20655;-75
2023/06/11 05:31:47;;;;;;;7.88;6.95;;;24.30;1.00;;;;;;4987148;28;20663;-75
2023/06/11 05:34:13;;;;;;;7.00;6.32;;;24.10;1.00;;;;;;4987334;28;20234;-76
2023/06/11 05:36:39;;;;;;;7.30;6.10;;;24.70;1.00;;;;;;4987695;28;20757;-75
2023/06/11 05:39:04;;;;;;;6.60;5.90;;;24.90;1.00;;;;;;4987088;28;20631;-76
2023/06/11 05:41:30;;;;;;;6.78;6.00;;;25.30;1.00;;;;;;4986843;28;20194;-76
2023/06/11 05:43:56;;;;;;;6.40;5.80;;;25.70;1.00;;;;;;4986402;28;20180;-76
2023/06/11 05:46:24;;;;;;;6.55;5.65;;;26.10;1.00;;;;;;4987354;28;20275;-75
2023/06/11 05:48:49;;;;;;;7.38;5.95;;;26.30;1.00;;;;;;4987201;28;20705;-76
2023/06/11 05:51:15;;;;;;;7.57;6.53;;;27.10;1.00;;;;;;4986595;28;20207;-76
2023/06/11 05:53:40;;;;;;;8.57;6.13;;;27.00;1.00;;;;;;4986936;28;20790;-75
2023/06/11 05:56:06;;;;;;;7.10;6.50;;;27.50;1.00;;;;;;4987024;28;20633;-77
2023/06/11 05:58:33;;;;;;;8.60;6.43;;;27.80;1.00;;;;;;4987465;28;21155;-75
2023/06/11 06:01:03;;;;;;;7.07;6.35;;;28.30;1.00;;;;;;4985392;28;20250;-76
2023/06/11 06:03:33;;;;;;;6.30;5.80;;;28.70;1.00;;;;;;4986922;28;20234;-75
2023/06/11 06:06:01;;;;;;;6.13;5.50;;;28.90;1.00;;;;;;4986901;28;20198;-75
2023/06/11 06:08:28;;;;;;;6.93;6.13;;;28.80;1.00;;;;;;4985311;28;20207;-76
2023/06/11 06:10:54;;;;;;;6.28;5.68;;;29.20;1.00;;;;;;4986540;28;20215;-77
2023/06/11 06:13:21;;;;;;;6.65;6.05;;;28.80;1.00;;;;;;4983878;28;21052;-76
2023/06/11 06:15:46;;;;;;;6.18;5.68;;;29.50;1.00;;;;;;4987093;28;20242;-76
2023/06/11 06:18:12;;;;;;;6.90;6.28;;;29.70;1.00;;;;;;4986623;28;20736;-75
2023/06/11 06:20:37;;;;;;;6.65;6.07;;;29.30;1.00;;;;;;4986279;28;20195;-76
2023/06/11 06:23:04;;;;;;;6.35;5.53;;;29.20;1.00;;;;;;4985246;28;20184;-76
2023/06/11 06:25:31;;;;;;;6.05;5.55;;;29.80;1.00;;;;;;4986464;28;20188;-75
2023/06/11 06:27:57;;;;;;;5.95;5.45;;;30.20;1.00;;;;;;4986018;28;20259;-75
2023/06/11 06:30:22;;;;;;;6.60;5.97;;;30.40;1.00;;;;;;4986193;28;20629;-75
2023/06/11 06:32:48;;;;;;;6.82;5.80;;;30.60;1.00;;;;;;4986374;28;20211;-75
2023/06/11 06:35:14;;;;;;;6.53;5.93;;;30.50;1.00;;;;;;4985643;28;20191;-75
2023/06/11 06:37:39;;;;;;;6.65;5.93;;;30.80;1.00;;;;;;4984556;28;20234;-77
2023/06/11 06:40:06;;;;;;;7.07;5.40;;;30.90;1.00;;;;;;4985518;28;20271;-76
2023/06/11 06:42:32;;;;;;;7.60;5.85;;;31.40;1.00;;;;;;4984918;28;20188;-76
2023/06/11 06:44:57;;;;;;;6.60;5.90;;;31.20;1.00;;;;;;4986222;28;20243;-77
2023/06/11 06:47:23;;;;;;;6.25;5.80;;;30.20;1.00;;;;;;4986306;28;20266;-77
2023/06/11 06:49:48;;;;;;;8.05;5.68;;;30.60;1.00;;;;;;4985565;28;20215;-76
2023/06/11 06:52:14;;;;;;;6.90;6.22;;;31.00;1.00;;;;;;4984756;28;20198;-75
2023/06/11 06:54:40;;;;;;;7.05;5.85;;;30.90;1.00;;;;;;4986262;28;20781;-76
2023/06/11 06:57:09;;;;;;;6.13;5.43;;;31.10;1.00;;;;;;4985103;28;20291;-76
2023/06/11 06:59:35;;;;;;;6.47;5.88;;;30.90;1.00;;;;;;4986493;28;20181;-76
2023/06/11 07:02:00;;;;;;;6.15;5.60;;;31.00;1.00;;;;;;4985551;28;20572;-76
2023/06/11 07:04:26;;;;;;;6.65;6.05;;;31.50;1.00;;;;;;4986423;28;20231;-76
2023/06/11 07:06:52;;;;;;;6.55;5.95;;;31.00;1.00;;;;;;4985965;28;20263;-76
2023/06/11 07:09:17;;;;;;;6.22;5.63;;;31.30;1.00;;;;;;4986336;28;20216;-76
2023/06/11 07:11:43;;;;;;;6.85;6.25;;;32.00;1.00;;;;;;4985404;28;20192;-77
2023/06/11 07:14:08;;;;;;;7.40;6.32;;;31.80;1.00;;;;;;4987180;28;20282;-76
2023/06/11 07:16:34;;;;;;;6.38;5.57;;;32.30;1.00;;;;;;4988548;28;20753;-76
2023/06/11 07:19:00;;;;;;;5.90;5.40;;;32.40;1.00;;;;;;4988624;28;20208;-76
2023/06/11 07:21:26;;;;;;;6.57;5.93;;;32.10;1.00;;;;;;4989440;28;20203;-76
2023/06/11 07:23:51;;;;;;;6.05;5.47;;;32.10;1.00;;;;;;4989861;28;20244;-76
2023/06/11 07:26:18;;;;;;;6.05;5.45;;;31.80;1.00;;;;;;4989962;28;20188;-76
2023/06/11 07:28:43;;;;;;;9.80;5.82;;;30.10;1.00;;;;;;4989841;28;20208;-77
2023/06/11 07:31:09;;;;;;;9.32;5.75;;;28.40;1.00;;;;;;4988784;28;20838;-78
2023/06/11 07:33:35;;;;;;;5.72;5.20;;;27.20;1.00;;;;;;4986642;28;20216;-76
2023/06/11 07:36:00;;;;;;;7.32;5.05;;;26.30;1.00;;;;;;4988405;28;20181;-75
2023/06/11 07:38:26;;;;;;;5.80;5.20;;;25.50;1.00;;;;;;4987913;28;20637;-76
2023/06/11 07:40:52;;;;;;;5.40;4.90;;;25.00;1.00;;;;;;4988165;28;20188;-77
2023/06/11 07:43:17;;;;;;;5.10;4.60;;;24.40;1.00;;;;;;4987313;28;20184;-77
2023/06/11 07:45:46;;;;;;;6.63;4.85;;;24.30;1.00;;;;;;4987906;28;20195;-77
2023/06/11 07:48:11;;;;;;;7.28;4.88;;;24.20;1.00;;;;;;4987025;28;20207;-75
2023/06/11 07:50:37;;;;;;;6.13;4.28;;;24.10;1.00;;;;;;4985661;28;20189;-75
2023/06/11 07:53:03;;;;;;;5.07;4.57;;;24.00;1.00;;;;;;4986969;28;20786;-76
2023/06/11 07:55:29;;;;;;;6.55;4.95;;;24.10;1.00;;;;;;4986943;28;20287;-76
2023/06/11 07:57:55;;;;;;;5.35;4.85;;;24.00;1.00;;;;;;4987248;28;20204;-75
2023/06/11 08:00:21;;;;;;;5.88;4.50;;;23.70;1.00;;;;;;4987006;28;20196;-76
2023/06/11 08:02:46;;;;;;;5.10;4.60;;;23.80;1.00;;;;;;4987859;28;20196;-75
2023/06/11 08:05:17;;;;;;;5.88;4.43;;;23.90;1.00;;;;;;4986268;28;20177;-76
2023/06/11 08:07:47;;;;;;;4.68;4.25;;;23.60;1.00;;;;;;4987967;28;20587;-77
2023/06/11 08:10:13;;;;;;;5.80;4.38;;;23.80;1.00;;;;;;4985842;28;20188;-75
2023/06/11 08:12:39;;;;;;;5.15;4.00;;;23.90;1.00;;;;;;4987739;28;20778;-75
2023/06/11 08:15:05;;;;;;;5.55;4.15;;;23.90;1.00;;;;;;4987468;28;20579;-75
2023/06/11 08:17:30;;;;;;;5.93;4.50;;;23.90;1.00;;;;;;4986022;28;20299;-75
2023/06/11 08:19:56;;;;;;;5.25;4.75;;;23.90;1.00;;;;;;4986919;28;20207;-76
2023/06/11 08:22:22;;;;;;;5.18;4.55;;;23.70;1.00;;;;;;4987240;28;20263;-75
2023/06/11 08:24:47;;;;;;;5.38;4.22;;;23.50;1.00;;;;;;4985592;28;20262;-76
2023/06/11 08:27:13;;;;;;;5.93;3.55;;;23.60;1.00;;;;;;4986106;28;20208;-75
2023/06/11 08:29:39;;;;;;;4.95;4.00;;;23.80;1.00;;;;;;4986670;28;20715;-76
2023/06/11 08:32:05;;;;;;;4.00;3.40;;;23.90;1.00;;;;;;4986706;28;20263;-75
2023/06/11 08:34:31;;;;;;;4.32;3.92;;;24.00;1.00;;;;;;4987065;28;20208;-75
2023/06/11 08:36:57;;;;;;;6.30;4.22;;;24.20;1.00;;;;;;4986974;28;20227;-75
2023/06/11 08:39:23;;;;;;;5.75;4.15;;;24.50;1.00;;;;;;4987447;28;20615;-76
2023/06/11 08:41:48;;;;;;;5.32;4.15;;;24.40;1.00;;;;;;4987160;28;20315;-76
2023/06/11 08:44:14;;;;;;;4.88;4.45;;;24.50;1.00;;;;;;4987805;28;21200;-75
2023/06/11 08:46:44;;;;;;;4.55;3.78;;;24.40;1.00;;;;;;4987590;28;20188;-76
2023/06/11 08:49:24;;;;;;;6.53;3.90;;;24.30;1.00;;;;;;4987381;28;20192;-75
2023/06/11 08:51:50;;;;;;;5.28;4.22;;;24.40;1.00;;;;;;4986699;28;20188;-76
2023/06/11 08:54:16;;;;;;;5.22;3.92;;;24.50;1.00;;;;;;4987544;28;20226;-75
2023/06/11 08:56:43;;;;;;;4.55;3.90;;;24.60;1.00;;;;;;4987221;28;20196;-75
2023/06/11 08:59:09;;;;;;;7.53;4.05;;;24.70;1.00;;;;;;4987253;28;20180;-76
2023/06/11 09:01:35;;;;;;;4.15;3.75;;;24.90;1.00;;;;;;4986587;28;20200;-75
2023/06/11 09:04:01;;;;;;;4.72;3.95;;;24.90;1.00;;;;;;4987353;28;20184;-76
2023/06/11 09:06:28;;;;;;;4.45;4.05;;;24.90;1.00;;;;;;4987144;28;20590;-75
2023/06/11 09:08:58;;;;;;;4.75;3.78;;;24.80;1.00;;;;;;4985967;28;20762;-76
2023/06/11 09:11:30;;;;;;;5.35;3.65;;;24.90;1.00;;;;;;4986154;28;20243;-75
2023/06/11 09:13:55;;;;;;;4.63;3.83;;;24.90;1.00;;;;;;4987164;28;20196;-76
2023/06/11 09:16:21;;;;;;;4.40;3.90;;;24.90;1.00;;;;;;4986700;28;20710;-75
2023/06/11 09:18:47;;;;;;;4.28;3.88;;;24.90;1.00;;;;;;4987419;28;20208;-75
2023/06/11 09:21:13;;;;;;;4.35;3.45;;;25.00;1.00;;;;;;4985924;28;20176;-76
2023/06/11 09:23:39;;;;;;;5.97;3.20;;;25.10;1.00;;;;;;4987153;28;20231;-76
2023/06/11 09:26:05;;;;;;;4.68;3.40;;;25.20;1.00;;;;;;4986529;28;20188;-76
2023/06/11 09:28:35;;;;;;;3.38;2.97;;;25.30;1.00;;;;;;4986732;28;20212;-75
2023/06/11 09:31:02;;;;;;;5.07;3.35;;;25.10;1.00;;;;;;4985700;28;20184;-76
2023/06/11 09:33:29;;;;;;;3.83;3.25;;;25.40;1.00;;;;;;4986355;28;20675;-75
2023/06/11 09:35:55;;;;;;;5.88;3.75;;;25.50;1.00;;;;;;4985798;28;20263;-75
2023/06/11 09:38:21;;;;;;;7.95;3.28;;;25.60;1.00;;;;;;4985665;28;20295;-75
2023/06/11 09:40:48;;;;;;;4.15;3.08;;;25.60;1.00;;;;;;4985724;28;21272;-76
2023/06/11 09:43:17;;;;;;;5.60;3.47;;;25.50;1.00;;;;;;4986640;28;20195;-77
2023/06/11 09:45:43;;;;;;;4.55;3.65;;;25.60;1.00;;;;;;4986183;28;20614;-76
2023/06/11 09:48:12;;;;;;;4.28;3.40;;;25.60;1.00;;;;;;4986760;28;20258;-75
2023/06/11 09:50:38;;;;;;;3.88;3.42;;;25.60;1.00;;;;;;4985545;28;20176;-75
2023/06/11 09:53:04;;;;;;;4.90;3.75;;;25.60;1.00;;;;;;4986382;28;20212;-76
2023/06/11 09:55:36;;;;;;;4.03;3.72;;;25.70;1.00;;;;;;4986318;28;20191;-74
2023/06/11 09:58:02;;;;;;;4.63;3.50;;;25.80;1.00;;;;;;4986634;28;20200;-76
2023/06/11 10:00:29;;;;;;;4.57;3.45;;;25.90;1.00;;;;;;4985982;28;20666;-76
2023/06/11 10:02:54;;;;;;;4.72;3.65;;;25.90;1.00;;;;;;4985776;28;20275;-76
2023/06/11 10:05:20;;;;;;;5.15;3.88;;;25.80;1.00;;;;;;4986980;28;20267;-74
2023/06/11 10:07:56;;;;;;;4.90;3.90;;;25.60;1.00;;;;;;4987252;28;20216;-77
2023/06/11 10:10:23;;;;;;;5.38;3.70;;;25.50;1.00;;;;;;4986460;28;20187;-76
2023/06/11 10:12:50;;;;;;;5.00;3.28;;;25.60;1.00;;;;;;4986987;28;20203;-77
2023/06/11 10:15:20;;;;;;;3.55;3.25;;;25.60;1.00;;;;;;4986717;28;20312;-74
2023/06/11 10:17:50;;;;;;;3.63;3.33;;;25.70;1.00;;;;;;4987119;28;20204;-75
2023/06/11 10:20:34;;;;;;;3.53;3.20;;;25.80;1.00;;;;;;4986122;28;20232;-76
2023/06/11 10:23:09;;;;;;;3.95;3.33;;;26.00;1.00;;;;;;4985916;28;20192;-74
2023/06/11 10:25:40;;;;;;;6.82;3.65;;;26.10;1.00;;;;;;4986318;28;20184;-77
2023/06/11 10:28:07;;;;;;;5.50;3.50;;;25.90;1.00;;;;;;4986485;28;20200;-75
2023/06/11 10:30:33;;;;;;;4.70;3.38;;;26.00;1.00;;;;;;4985934;28;20544;-74
2023/06/11 10:32:59;;;;;;;5.15;3.38;;;26.00;1.00;;;;;;4986117;28;20671;-75
2023/06/11 10:35:32;;;;;;;3.85;3.22;;;26.10;1.00;;;;;;4985267;28;20176;-71
2023/06/11 10:38:06;;;;;;;3.20;2.90;;;26.20;1.00;;;;;;4985239;28;20732;-72
2023/06/11 10:40:35;;;;;;;4.00;3.17;;;26.30;1.00;;;;;;4984268;28;20267;-71
2023/06/11 10:43:04;;;;;;;3.60;3.30;;;26.20;1.00;;;;;;4984654;28;20191;-72
2023/06/11 10:45:36;;;;;;;6.05;3.20;;;26.00;1.00;;;;;;4985058;28;20219;-72
2023/06/11 10:48:01;;;;;;;4.82;3.08;;;26.10;1.00;;;;;;4984767;28;20200;-71
2023/06/11 10:50:31;;;;;;;3.83;3.30;;;26.30;1.00;;;;;;4984324;28;20176;-71
2023/06/11 10:53:09;;;;;;;3.30;3.00;;;26.10;1.00;;;;;;4984908;28;20204;-70
2023/06/11 10:55:40;;;;;;;4.55;3.00;;;26.20;1.00;;;;;;4984867;28;20674;-72
2023/06/11 10:58:06;;;;;;;3.55;3.25;;;26.20;1.00;;;;;;4985093;28;20215;-73
2023/06/11 11:00:36;;;;;;;5.35;3.80;;;26.20;1.00;;;;;;4984278;28;20180;-72
2023/06/11 11:03:03;;;;;;;6.00;5.43;;;26.10;1.00;;;;;;4985486;28;20180;-72
2023/06/11 11:05:29;;;;;;;4.85;3.80;;;26.30;1.00;;;;;;4985089;28;20184;-74
2023/06/11 11:07:55;;;;;;;3.47;3.10;;;26.40;1.00;;;;;;4985082;28;20208;-74
2023/06/11 11:10:26;;;;;;;4.28;3.30;;;26.30;1.00;;;;;;4984452;28;20176;-73
2023/06/11 11:12:53;;;;;;;4.07;3.40;;;26.40;1.00;;;;;;4985041;28;20207;-73
2023/06/11 11:15:19;;;;;;;4.72;3.33;;;26.50;1.00;;;;;;4984719;28;20188;-74
2023/06/11 11:17:46;;;;;;;4.72;3.13;;;26.40;1.00;;;;;;4985186;28;20208;-72
2023/06/11 11:20:20;;;;;;;3.63;3.25;;;26.50;1.00;;;;;;4984996;28;20215;-72
2023/06/11 11:22:56;;;;;;;3.35;3.05;;;26.50;1.00;;;;;;4985257;28;20198;-72
2023/06/11 11:25:27;;;;;;;4.72;3.10;;;26.60;1.00;;;;;;4984942;28;20190;-74
2023/06/11 11:27:53;;;;;;;3.30;3.00;;;26.50;1.00;;;;;;4985402;28;20205;-74
2023/06/11 11:30:19;;;;;;;5.00;3.00;;;26.40;1.00;;;;;;4984521;28;20196;-75
2023/06/11 11:32:45;;;;;;;4.10;3.00;;;26.30;1.00;;;;;;4982190;28;20664;-73
2023/06/11 11:35:13;;;;;;;3.42;3.13;;;26.30;1.00;;;;;;4984918;28;20177;-73
2023/06/11 11:37:39;;;;;;;3.22;2.92;;;26.20;1.00;;;;;;4984255;28;20188;-73
2023/06/11 11:40:08;;;;;;;3.60;2.92;;;26.50;1.00;;;;;;4984846;28;20184;-74
2023/06/11 11:42:53;;;;;;;7.70;3.10;;;26.60;1.00;;;;;;4983435;28;20176;-73
2023/06/11 11:45:31;;;;;;;3.55;3.00;;;26.50;1.00;;;;;;4984478;28;20188;-73
2023/06/11 11:47:56;;;;;;;4.85;2.88;;;26.60;1.00;;;;;;4984631;28;20226;-73
2023/06/11 11:50:27;;;;;;;2.80;2.60;;;26.70;1.00;;;;;;4984086;28;20184;-71
2023/06/11 11:53:04;;;;;;;4.63;3.05;;;26.70;1.00;;;;;;4985055;28;20192;-73
2023/06/11 11:55:51;;;;;;;3.88;3.03;;;26.60;1.00;;;;;;4984688;28;20180;-73
2023/06/11 11:58:17;;;;;;;3.30;3.00;;;26.50;1.00;;;;;;4984019;28;20216;-72
2023/06/11 12:00:48;;;;;;;3.20;3.00;;;26.60;1.00;;;;;;4987786;28;20188;-73
2023/06/11 12:03:17;;;;;;;5.38;2.90;;;26.60;1.00;;;;;;4988055;28;20180;-74
2023/06/11 12:05:42;;;;;;;3.95;3.25;;;26.60;1.00;;;;;;4987503;28;20188;-74
2023/06/11 12:08:08;;;;;;;3.88;3.30;;;26.80;1.00;;;;;;4988156;28;20774;-74
2023/06/11 12:10:34;;;;;;;3.88;3.25;;;26.70;1.00;;;;;;4987255;28;20184;-72
2023/06/11 12:13:00;;;;;;;4.47;3.55;;;26.70;1.00;;;;;;4986992;28;20762;-74
2023/06/11 12:15:27;;;;;;;3.63;3.22;;;26.80;1.00;;;;;;4987448;28;20187;-73
2023/06/11 12:17:53;;;;;;;3.92;3.53;;;26.70;1.00;;;;;;4987653;28;20203;-72
2023/06/11 12:20:21;;;;;;;3.83;3.53;;;26.70;1.00;;;;;;4987391;28;20195;-73
2023/06/11 12:22:47;;;;;;;3.45;3.15;;;26.80;1.00;;;;;;4986589;28;20339;-71
2023/06/11 12:25:12;;;;;;;3.70;3.38;;;26.80;1.00;;;;;;4987591;28;20267;-71
2023/06/11 12:27:39;;;;;;;3.65;3.35;;;26.90;1.00;;;;;;4987224;28;20208;-71
2023/06/11 12:30:07;;;;;;;3.75;3.03;;;26.80;1.00;;;;;;4986433;28;20191;-73
2023/06/11 12:32:33;;;;;;;3.95;3.22;;;26.70;1.00;;;;;;4986875;28;20208;-73
2023/06/11 12:34:59;;;;;;;4.32;3.60;;;26.70;1.00;;;;;;4987328;28;20732;-74
2023/06/11 12:37:24;;;;;;;4.10;3.28;;;26.80;1.00;;;;;;4987403;28;20282;-73
2023/06/11 12:39:51;;;;;;;4.13;3.72;;;26.90;1.00;;;;;;4987407;28;20203;-75
2023/06/11 12:42:19;;;;;;;3.75;3.45;;;26.80;1.00;;;;;;4986669;28;20180;-73
2023/06/11 12:44:46;;;;;;;3.65;3.33;;;26.90;1.00;;;;;;4987566;28;20188;-72
2023/06/11 12:47:12;;;;;;;4.60;3.50;;;27.00;1.00;;;;;;4987182;28;20671;-72
2023/06/11 12:49:38;;;;;;;3.70;3.40;;;27.00;1.00;;;;;;4987374;28;20196;-75
2023/06/11 12:52:05;;;;;;;3.17;2.88;;;27.00;1.00;;;;;;4986642;28;20191;-74
2023/06/11 12:54:31;;;;;;;4.45;3.70;;;27.10;1.00;;;;;;4986933;28;20207;-75